createdAt,value
2023-04-17T00:01:28.266Z,75.02
2023-04-17T00:03:57.655Z,75.12
2023-04-17T00:06:27.525Z,75.28
2023-04-17T00:08:55.982Z,75.41
2023-04-17T00:11:23.798Z,75.41
2023-04-17T00:13:51.730Z,75.43
2023-04-17T00:16:19.978Z,75.54
2023-04-17T00:18:47.977Z,75.31
2023-04-17T00:21:15.910Z,74.92
2023-04-17T00:23:43.715Z,75.03
2023-04-17T00:26:12.036Z,75.11
2023-04-17T00:28:40.167Z,75.10
2023-04-17T00:31:08.388Z,75.20
2023-04-17T00:33:36.174Z,75.42
2023-04-17T00:36:04.385Z,75.50
2023-04-17T00:38:32.128Z,75.43
2023-04-17T00:40:59.911Z,75.40
2023-04-17T00:43:27.670Z,75.29
2023-04-17T00:45:55.717Z,75.23
2023-04-17T00:48:24.293Z,74.99
2023-04-17T00:50:53.846Z,75.10
2023-04-17T00:53:22.410Z,75.15
2023-04-17T00:55:51.393Z,75.23
2023-04-17T00:58:19.557Z,75.08
2023-04-17T01:00:49.004Z,75.19
2023-04-17T01:03:17.240Z,75.38
2023-04-17T01:05:50.407Z,75.25
2023-04-17T01:08:19.507Z,75.06
2023-04-17T01:10:47.415Z,75.01
2023-04-17T01:13:15.628Z,75.40
2023-04-17T01:15:44.724Z,75.69
2023-04-17T01:18:13.511Z,75.45
2023-04-17T01:20:41.286Z,75.23
2023-04-17T01:23:09.391Z,74.92
2023-04-17T01:25:37.342Z,74.89
2023-04-17T01:28:05.112Z,74.79
2023-04-17T01:30:33.005Z,74.73
2023-04-17T01:33:04.226Z,74.64
2023-04-17T01:35:32.101Z,74.82
2023-04-17T01:38:00.023Z,75.00
2023-04-17T01:40:28.358Z,75.00
2023-04-17T01:42:56.180Z,74.98
2023-04-17T01:45:23.924Z,75.19
2023-04-17T01:47:51.844Z,75.02
2023-04-17T01:50:20.007Z,74.83
2023-04-17T01:52:48.370Z,74.78
2023-04-17T01:55:16.311Z,74.88
2023-04-17T01:57:44.047Z,75.07
2023-04-17T02:00:12.525Z,75.09
2023-04-17T02:02:40.735Z,75.02
2023-04-17T02:05:08.921Z,75.11
2023-04-17T02:07:37.961Z,74.97
2023-04-17T02:10:06.562Z,74.73
2023-04-17T02:12:34.309Z,74.90
2023-04-17T02:15:02.093Z,74.99
2023-04-17T02:17:29.930Z,74.83
2023-04-17T02:19:57.715Z,74.83
2023-04-17T02:22:25.491Z,74.95
2023-04-17T02:24:53.295Z,74.92
2023-04-17T02:27:21.325Z,75.05
2023-04-17T02:29:49.107Z,75.03
2023-04-17T02:32:17.447Z,74.96
2023-04-17T02:34:45.411Z,75.05
2023-04-17T02:37:13.821Z,75.10
2023-04-17T02:39:42.174Z,75.30
2023-04-17T02:42:10.235Z,75.43
2023-04-17T02:44:38.070Z,75.31
2023-04-17T02:47:06.527Z,75.16
2023-04-17T02:49:34.499Z,75.41
2023-04-17T02:52:02.433Z,75.48
2023-04-17T02:54:30.520Z,75.22
2023-04-17T02:56:58.734Z,75.19
2023-04-17T02:59:27.019Z,75.35
2023-04-17T03:01:55.143Z,75.45
2023-04-17T03:04:23.117Z,75.48
2023-04-17T03:06:51.621Z,75.32
2023-04-17T03:09:22.406Z,75.50
2023-04-17T03:11:50.255Z,75.56
2023-04-17T03:14:18.074Z,75.55
2023-04-17T03:16:46.146Z,75.53
2023-04-17T03:19:14.201Z,75.45
2023-04-17T03:21:42.210Z,75.23
2023-04-17T03:24:11.568Z,75.31
2023-04-17T03:26:39.399Z,75.73
2023-04-17T03:29:10.653Z,75.78
2023-04-17T03:31:38.814Z,75.76
2023-04-17T03:34:07.837Z,76.01
2023-04-17T03:36:36.391Z,76.08
2023-04-17T03:39:04.716Z,76.10
2023-04-17T03:41:32.688Z,76.23
2023-04-17T03:44:00.898Z,76.29
2023-04-17T03:46:30.519Z,76.37
2023-04-17T03:48:58.443Z,76.48
2023-04-17T03:51:31.566Z,76.41
2023-04-17T03:54:04.311Z,76.30
2023-04-17T03:56:32.274Z,76.30
2023-04-17T03:59:00.248Z,76.31
2023-04-17T04:01:28.487Z,76.34
2023-04-17T04:04:15.829Z,76.35
2023-04-17T04:06:45.010Z,76.30
2023-04-17T04:09:15.332Z,76.35
2023-04-17T04:11:43.359Z,76.48
2023-04-17T04:14:11.720Z,76.60
2023-04-17T04:16:39.692Z,76.40
2023-04-17T04:19:12.594Z,76.42
2023-04-17T04:21:42.163Z,76.66
2023-04-17T04:24:13.276Z,76.84
2023-04-17T04:26:42.464Z,76.91
2023-04-17T04:29:11.860Z,77.09
2023-04-17T04:32:02.352Z,77.02
2023-04-17T04:34:36.445Z,77.11
2023-04-17T04:37:04.255Z,77.24
2023-04-17T04:39:43.126Z,77.48
2023-04-17T04:42:21.954Z,77.77
2023-04-17T04:45:16.611Z,77.97
2023-04-17T04:47:44.667Z,78.03
2023-04-17T04:50:12.976Z,78.58
2023-04-17T04:52:40.819Z,78.93
2023-04-17T04:55:16.044Z,78.99
2023-04-17T04:57:47.788Z,79.20
2023-04-17T05:00:18.107Z,79.30
2023-04-17T05:02:48.045Z,79.30
2023-04-17T05:05:16.218Z,79.45
2023-04-17T05:07:44.226Z,79.65
2023-04-17T05:10:13.765Z,79.77
2023-04-17T05:12:45.911Z,79.96
2023-04-17T05:15:14.173Z,80.06
2023-04-17T05:17:42.047Z,80.13
2023-04-17T05:20:12.306Z,80.22
2023-04-17T05:22:46.828Z,80.31
2023-04-17T05:25:16.316Z,80.51
2023-04-17T05:27:44.201Z,80.36
2023-04-17T05:30:13.137Z,80.33
2023-04-17T05:32:41.844Z,80.38
2023-04-17T05:35:30.030Z,80.44
2023-04-17T05:37:57.975Z,80.55
2023-04-17T05:40:25.785Z,80.68
2023-04-17T05:42:53.531Z,80.78
2023-04-17T05:45:23.442Z,80.81
2023-04-17T05:47:52.689Z,80.91
2023-04-17T05:50:21.581Z,81.01
2023-04-17T05:52:49.509Z,80.72
2023-04-17T05:55:20.116Z,80.56
2023-04-17T05:57:49.512Z,80.52
2023-04-17T06:00:17.585Z,80.85
2023-04-17T06:02:48.729Z,80.87
2023-04-17T06:05:21.959Z,80.75
2023-04-17T06:07:50.354Z,80.82
2023-04-17T06:10:18.524Z,80.79
2023-04-17T06:12:46.793Z,80.30
2023-04-17T06:15:16.106Z,80.11
2023-04-17T06:17:45.344Z,80.02
2023-04-17T06:20:13.626Z,80.28
2023-04-17T06:22:44.236Z,80.39
2023-04-17T06:25:12.792Z,80.28
2023-04-17T06:27:40.943Z,80.18
2023-04-17T06:30:10.102Z,79.93
2023-04-17T06:32:47.733Z,79.59
2023-04-17T06:35:16.573Z,79.61
2023-04-17T06:37:48.406Z,79.34
2023-04-17T06:40:16.307Z,79.45
2023-04-17T06:42:44.275Z,79.29
2023-04-17T06:45:14.768Z,79.44
2023-04-17T06:47:46.691Z,79.47
2023-04-17T06:50:18.285Z,79.47
2023-04-17T06:52:46.266Z,79.43
2023-04-17T06:55:14.801Z,79.03
2023-04-17T06:57:42.748Z,79.11
2023-04-17T07:00:11.650Z,78.93
2023-04-17T07:02:39.671Z,78.70
2023-04-17T07:05:08.087Z,78.16
2023-04-17T07:07:36.512Z,78.32
2023-04-17T07:10:05.105Z,77.57
2023-04-17T07:12:33.648Z,76.82
2023-04-17T07:15:01.583Z,76.68
2023-04-17T07:17:29.385Z,76.52
2023-04-17T07:19:57.251Z,76.20
2023-04-17T07:22:27.116Z,75.88
2023-04-17T07:24:55.319Z,75.31
2023-04-17T07:27:23.202Z,75.30
2023-04-17T07:29:54.732Z,75.02
2023-04-17T07:32:26.661Z,74.86
2023-04-17T07:34:54.476Z,74.93
2023-04-17T07:37:22.491Z,74.96
2023-04-17T07:39:50.597Z,74.97
2023-04-17T07:42:18.457Z,74.97
2023-04-17T07:44:47.247Z,75.03
2023-04-17T07:47:15.176Z,74.83
2023-04-17T07:49:46.546Z,75.00
2023-04-17T07:52:15.400Z,74.64
2023-04-17T07:54:43.891Z,74.50
2023-04-17T07:57:11.706Z,74.62
2023-04-17T07:59:39.597Z,74.70
2023-04-17T08:02:07.910Z,74.51
2023-04-17T08:04:35.867Z,73.86
2023-04-17T08:07:03.925Z,73.91
2023-04-17T08:09:31.761Z,73.53
2023-04-17T08:11:59.567Z,73.50
2023-04-17T08:14:27.329Z,73.69
2023-04-17T08:16:55.596Z,73.96
2023-04-17T08:19:23.601Z,73.68
2023-04-17T08:22:01.529Z,73.62
2023-04-17T08:24:31.797Z,73.53
2023-04-17T08:26:59.661Z,73.23
2023-04-17T08:29:27.726Z,73.04
2023-04-17T08:32:12.592Z,72.95
2023-04-17T08:34:44.496Z,72.86
2023-04-17T08:37:12.950Z,73.00
2023-04-17T08:39:40.923Z,73.00
2023-04-17T08:42:18.436Z,72.98
2023-04-17T08:44:46.793Z,73.08
2023-04-17T08:47:17.727Z,72.90
2023-04-17T08:49:46.085Z,72.75
2023-04-17T08:52:14.464Z,73.12
2023-04-17T08:54:42.632Z,72.46
2023-04-17T08:57:10.507Z,71.93
2023-04-17T08:59:38.261Z,72.58
2023-04-17T09:02:08.592Z,72.59
2023-04-17T09:04:45.276Z,72.72
2023-04-17T09:07:15.683Z,73.14
2023-04-17T09:09:55.476Z,73.21
2023-04-17T09:12:25.833Z,72.68
2023-04-17T09:14:53.669Z,72.46
2023-04-17T09:17:21.679Z,71.91
2023-04-17T09:20:07.518Z,71.10
2023-04-17T09:22:38.326Z,71.15
2023-04-17T09:25:23.218Z,70.18
2023-04-17T09:27:51.076Z,69.60
2023-04-17T09:30:18.905Z,69.12
2023-04-17T09:32:46.842Z,68.16
2023-04-17T09:35:26.014Z,67.04
2023-04-17T09:37:56.278Z,65.57
2023-04-17T09:40:25.348Z,66.91
2023-04-17T09:43:09.013Z,65.65
2023-04-17T09:45:42.157Z,64.81
2023-04-17T09:48:13.541Z,64.84
2023-04-17T09:50:41.450Z,64.91
2023-04-17T09:53:09.370Z,64.17
2023-04-17T09:55:41.612Z,64.52
2023-04-17T09:58:10.160Z,64.73
2023-04-17T10:00:41.868Z,63.92
2023-04-17T10:03:10.212Z,64.53
2023-04-17T10:05:38.527Z,63.77
2023-04-17T10:08:07.592Z,63.26
2023-04-17T10:10:36.532Z,63.38
2023-04-17T10:13:11.335Z,63.08
2023-04-17T10:15:40.060Z,62.49
2023-04-17T10:18:25.090Z,62.44
2023-04-17T10:20:55.543Z,62.42
2023-04-17T10:23:36.571Z,62.62
2023-04-17T10:26:26.513Z,61.59
2023-04-17T10:28:57.869Z,61.68
2023-04-17T10:32:10.266Z,61.33
2023-04-17T10:34:41.105Z,61.62
2023-04-17T10:37:15.431Z,61.43
2023-04-17T10:39:51.544Z,61.88
2023-04-17T10:42:22.020Z,62.01
2023-04-17T10:44:52.216Z,61.20
2023-04-17T10:47:22.268Z,61.39
2023-04-17T10:50:00.921Z,60.70
2023-04-17T10:52:34.745Z,60.32
2023-04-17T10:55:04.323Z,60.98
2023-04-17T10:58:02.149Z,60.37
2023-04-17T11:00:38.952Z,59.50
2023-04-17T11:03:07.436Z,59.59
2023-04-17T11:05:35.839Z,59.76
2023-04-17T11:08:03.851Z,57.80
2023-04-17T11:10:37.287Z,58.34
2023-04-17T11:13:05.232Z,58.26
2023-04-17T11:15:35.323Z,58.09
2023-04-17T11:18:04.063Z,57.33
2023-04-17T11:20:37.811Z,57.14
2023-04-17T11:23:06.856Z,57.28
2023-04-17T11:25:35.026Z,56.29
2023-04-17T11:28:06.703Z,55.03
2023-04-17T11:30:45.194Z,54.12
2023-04-17T11:33:17.029Z,54.07
2023-04-17T11:35:44.947Z,53.28
2023-04-17T11:38:20.931Z,52.51
2023-04-17T11:41:01.323Z,51.96
2023-04-17T11:43:34.852Z,51.17
2023-04-17T11:46:03.374Z,52.44
2023-04-17T11:48:32.545Z,52.92
2023-04-17T11:51:04.594Z,53.40
2023-04-17T11:53:36.191Z,52.44
2023-04-17T11:56:18.088Z,52.40
2023-04-17T11:58:53.430Z,52.56
2023-04-17T12:01:25.899Z,53.48
2023-04-17T12:03:58.709Z,52.91
2023-04-17T12:06:37.775Z,53.14
2023-04-17T12:09:07.190Z,52.67
2023-04-17T12:11:35.852Z,52.63
2023-04-17T12:14:11.581Z,52.37
2023-04-17T12:16:39.675Z,52.29
2023-04-17T12:19:08.000Z,51.44
2023-04-17T12:21:35.908Z,51.53
2023-04-17T12:24:03.892Z,50.52
2023-04-17T12:26:31.652Z,50.71
2023-04-17T12:28:59.404Z,50.80
2023-04-17T12:31:27.332Z,50.99
2023-04-17T12:33:55.157Z,50.95
2023-04-17T12:36:23.068Z,51.11
2023-04-17T12:38:51.352Z,51.78
2023-04-17T12:41:19.181Z,52.19
2023-04-17T12:43:46.921Z,51.94
2023-04-17T12:46:14.894Z,52.33
2023-04-17T12:48:42.632Z,52.14
2023-04-17T12:51:10.511Z,52.14
2023-04-17T12:53:38.357Z,52.35
2023-04-17T12:56:06.902Z,52.80
2023-04-17T12:58:34.653Z,52.61
2023-04-17T13:01:02.753Z,52.63
2023-04-17T13:03:30.860Z,51.95
2023-04-17T13:05:58.810Z,51.68
2023-04-17T13:08:26.672Z,51.42
2023-04-17T13:10:54.476Z,51.91
2023-04-17T13:13:23.019Z,52.54
2023-04-17T13:15:51.025Z,52.05
2023-04-17T13:18:18.761Z,51.06
2023-04-17T13:20:46.582Z,51.86
2023-04-17T13:23:14.493Z,51.04
2023-04-17T13:25:42.933Z,51.23
2023-04-17T13:28:10.948Z,50.88
2023-04-17T13:30:39.760Z,51.57
2023-04-17T13:33:07.852Z,52.04
2023-04-17T13:35:35.946Z,52.09
2023-04-17T13:38:04.309Z,52.00
2023-04-17T13:40:32.159Z,51.50
2023-04-17T13:43:00.521Z,51.02
2023-04-17T13:45:28.394Z,50.37
2023-04-17T13:47:56.213Z,49.89
2023-04-17T13:50:24.120Z,49.55
2023-04-17T13:52:52.088Z,49.59
2023-04-17T13:55:19.919Z,50.14
2023-04-17T13:57:47.750Z,49.68
2023-04-17T14:00:17.253Z,49.99
2023-04-17T14:02:45.172Z,50.43
2023-04-17T14:11:33.636Z,48.88
2023-04-17T14:14:01.428Z,49.48
2023-04-17T14:16:29.462Z,49.45
2023-04-17T14:19:01.329Z,49.13
2023-04-17T14:21:35.972Z,49.57
2023-04-17T14:24:04.028Z,49.98
2023-04-17T14:26:32.567Z,50.49
2023-04-17T14:29:00.956Z,50.27
2023-04-17T14:31:29.155Z,50.25
2023-04-17T14:33:57.015Z,49.45
2023-04-17T14:36:24.821Z,49.43
2023-04-17T14:38:54.334Z,48.31
2023-04-17T14:41:22.280Z,49.38
2023-04-17T14:43:50.133Z,48.24
2023-04-17T14:46:17.970Z,48.05
2023-04-17T14:48:54.747Z,47.76
2023-04-17T14:51:24.391Z,48.61
2023-04-17T14:53:53.105Z,50.11
2023-04-17T14:56:21.954Z,50.23
2023-04-17T14:58:50.206Z,49.46
2023-04-17T15:01:18.107Z,48.70
2023-04-17T15:03:48.398Z,49.27
2023-04-17T15:06:17.042Z,48.42
2023-04-17T15:08:46.197Z,48.93
2023-04-17T15:11:14.445Z,48.68
2023-04-17T15:13:42.468Z,48.84
2023-04-17T15:16:10.969Z,49.09
2023-04-17T15:18:39.526Z,49.03
2023-04-17T15:21:07.934Z,49.07
2023-04-17T15:23:35.962Z,50.28
2023-04-17T15:26:04.038Z,50.74
2023-04-17T15:28:33.109Z,50.97
2023-04-17T15:31:02.392Z,50.58
2023-04-17T15:33:30.573Z,50.10
2023-04-17T15:36:00.153Z,49.17
2023-04-17T15:38:28.121Z,49.03
2023-04-17T15:40:55.968Z,50.15
2023-04-17T15:43:23.901Z,48.55
2023-04-17T15:45:52.180Z,49.06
2023-04-17T15:48:20.139Z,48.79
2023-04-17T15:50:47.984Z,48.29
2023-04-17T15:53:15.769Z,47.30
2023-04-17T15:55:43.634Z,46.89
2023-04-17T15:58:11.659Z,46.49
2023-04-17T16:00:39.550Z,46.74
2023-04-17T16:03:10.313Z,46.98
2023-04-17T16:05:38.274Z,46.80
2023-04-17T16:08:06.185Z,46.56
2023-04-17T16:10:34.953Z,45.67
2023-04-17T16:13:02.978Z,45.53
2023-04-17T16:15:30.938Z,46.31
2023-04-17T16:17:59.015Z,47.05
2023-04-17T16:20:26.872Z,47.70
2023-04-17T16:22:54.687Z,47.91
2023-04-17T16:25:22.756Z,47.91
2023-04-17T16:27:50.752Z,47.42
2023-04-17T16:30:18.635Z,46.52
2023-04-17T16:32:48.678Z,47.01
2023-04-17T16:35:17.300Z,46.60
2023-04-17T16:37:45.272Z,47.01
2023-04-17T16:40:13.236Z,46.55
2023-04-17T16:42:42.430Z,46.47
2023-04-17T16:45:10.474Z,46.68
2023-04-17T16:47:38.862Z,46.62
2023-04-17T16:50:08.752Z,46.77
2023-04-17T16:52:41.009Z,45.98
2023-04-17T16:55:09.498Z,46.20
2023-04-17T16:57:38.262Z,46.01
2023-04-17T17:00:08.119Z,45.32
2023-04-17T17:02:37.335Z,45.11
2023-04-17T17:05:06.092Z,45.86
2023-04-17T17:07:34.170Z,45.61
2023-04-17T17:10:01.995Z,46.29
2023-04-17T17:12:29.888Z,46.16
2023-04-17T17:14:58.162Z,45.98
2023-04-17T17:17:26.071Z,45.66
2023-04-17T17:19:54.028Z,45.68
2023-04-17T17:22:21.792Z,46.21
2023-04-17T17:24:49.681Z,45.88
2023-04-17T17:27:17.545Z,46.07
2023-04-17T17:29:45.524Z,46.24
2023-04-17T17:32:14.399Z,46.34
2023-04-17T17:34:43.555Z,46.00
2023-04-17T17:37:11.868Z,46.30
2023-04-17T17:39:39.698Z,45.43
2023-04-17T17:42:08.725Z,46.81
2023-04-17T17:44:37.948Z,47.07
2023-04-17T17:47:07.770Z,47.10
2023-04-17T17:49:36.051Z,47.14
2023-04-17T17:52:04.134Z,47.08
2023-04-17T17:54:37.089Z,47.39
2023-04-17T17:57:06.453Z,47.41
2023-04-17T17:59:34.474Z,47.85
2023-04-17T18:02:02.643Z,48.26
2023-04-17T18:04:31.093Z,48.05
2023-04-17T18:06:59.043Z,48.00
2023-04-17T18:09:27.416Z,48.25
2023-04-17T18:11:55.759Z,48.61
2023-04-17T18:14:23.869Z,48.52
2023-04-17T18:16:51.970Z,48.35
2023-04-17T18:19:19.892Z,48.73
2023-04-17T18:21:48.527Z,48.82
2023-04-17T18:24:16.624Z,49.16
2023-04-17T18:26:44.511Z,49.36
2023-04-17T18:29:12.490Z,49.50
2023-04-17T18:31:40.409Z,49.73
2023-04-17T18:34:08.333Z,49.64
2023-04-17T18:36:36.206Z,49.84
2023-04-17T18:39:04.063Z,50.18
2023-04-17T18:41:32.332Z,50.72
2023-04-17T18:44:01.146Z,51.18
2023-04-17T18:46:30.537Z,51.90
2023-04-17T18:48:58.580Z,53.53
2023-04-17T18:51:26.314Z,54.43
2023-04-17T18:53:54.095Z,55.04
2023-04-17T18:56:24.161Z,56.01
2023-04-17T18:58:53.470Z,58.17
2023-04-17T19:01:22.887Z,59.68
2023-04-17T19:03:53.351Z,60.97
2023-04-17T19:06:22.295Z,61.57
2023-04-17T19:08:51.929Z,62.12
2023-04-17T19:11:21.982Z,63.19
2023-04-17T19:13:51.244Z,63.66
2023-04-17T19:16:20.398Z,63.63
2023-04-17T19:18:49.502Z,63.84
2023-04-17T19:21:18.416Z,64.22
2023-04-17T19:23:47.989Z,64.49
2023-04-17T19:26:17.861Z,65.20
2023-04-17T19:28:46.912Z,65.72
2023-04-17T19:31:16.235Z,66.39
2023-04-17T19:33:45.259Z,66.86
2023-04-17T19:36:14.234Z,67.01
2023-04-17T19:38:44.184Z,67.59
2023-04-17T19:41:18.291Z,68.16
2023-04-17T19:43:54.164Z,68.29
2023-04-17T19:46:24.836Z,68.63
2023-04-17T19:48:53.792Z,68.96
2023-04-17T19:51:22.895Z,68.84
2023-04-17T19:53:53.302Z,69.22
2023-04-17T19:56:21.987Z,69.39
2023-04-17T19:58:50.384Z,69.87
2023-04-17T20:01:19.316Z,70.05
2023-04-17T20:03:48.240Z,70.82
2023-04-17T20:06:17.036Z,71.02
2023-04-17T20:08:45.252Z,71.29
2023-04-17T20:11:15.707Z,71.80
2023-04-17T20:13:43.515Z,72.18
2023-04-17T20:16:11.431Z,71.90
2023-04-17T20:18:39.945Z,72.04
2023-04-17T20:21:07.794Z,72.10
2023-04-17T20:23:35.985Z,72.50
2023-04-17T20:26:03.927Z,72.95
2023-04-17T20:28:31.832Z,72.84
2023-04-17T20:30:59.702Z,73.07
2023-04-17T20:33:27.671Z,73.38
2023-04-17T20:35:55.486Z,73.65
2023-04-17T20:38:23.467Z,73.51
2023-04-17T20:40:51.295Z,73.57
2023-04-17T20:43:19.282Z,73.87
2023-04-17T20:45:48.402Z,74.43
2023-04-17T20:48:16.623Z,74.63
2023-04-17T20:50:44.660Z,74.69
2023-04-17T20:53:12.460Z,74.62
2023-04-17T20:55:40.343Z,74.88
2023-04-17T20:58:08.602Z,75.08
2023-04-17T21:00:38.558Z,75.33
2023-04-17T21:03:12.948Z,75.69
2023-04-17T21:05:40.787Z,75.51
2023-04-17T21:08:08.682Z,75.53
2023-04-17T21:10:36.582Z,75.40
2023-04-17T21:13:04.412Z,75.50
2023-04-17T21:15:32.908Z,75.78
2023-04-17T21:18:00.872Z,75.90
2023-04-17T21:20:28.725Z,75.77
2023-04-17T21:22:56.512Z,75.72
2023-04-17T21:25:24.390Z,76.04
2023-04-17T21:27:52.587Z,76.25
2023-04-17T21:30:20.431Z,76.17
2023-04-17T21:32:48.324Z,76.54
2023-04-17T21:35:16.235Z,76.38
2023-04-17T21:37:44.020Z,76.67
2023-04-17T21:40:12.758Z,76.73
2023-04-17T21:42:40.686Z,76.70
2023-04-17T21:45:09.185Z,76.86
2023-04-17T21:47:37.439Z,76.64
2023-04-17T21:50:06.034Z,76.73
2023-04-17T21:52:33.904Z,76.64
2023-04-17T21:55:03.263Z,76.71
2023-04-17T21:57:35.032Z,76.70
2023-04-17T22:00:05.299Z,76.70
2023-04-17T22:02:34.541Z,76.60
2023-04-17T22:05:02.400Z,76.58
2023-04-17T22:07:30.744Z,76.68
2023-04-17T22:10:02.213Z,76.81
2023-04-17T22:12:30.024Z,76.95
2023-04-17T22:14:57.823Z,77.01
2023-04-17T22:17:25.687Z,76.98
2023-04-17T22:19:55.847Z,76.91
2023-04-17T22:22:23.971Z,77.07
2023-04-17T22:24:52.173Z,76.95
2023-04-17T22:27:20.040Z,76.99
2023-04-17T22:29:47.936Z,77.07
2023-04-17T22:32:16.380Z,77.45
2023-04-17T22:34:51.131Z,77.55
2023-04-17T22:37:19.308Z,77.61
2023-04-17T22:39:47.185Z,77.73
2023-04-17T22:42:15.033Z,78.18
2023-04-17T22:44:42.806Z,78.00
2023-04-17T22:47:10.601Z,77.73
2023-04-17T22:49:38.514Z,77.56
2023-04-17T22:52:07.500Z,77.98
2023-04-17T22:54:36.698Z,77.84
2023-04-17T22:57:04.604Z,77.78
2023-04-17T22:59:33.150Z,77.77
2023-04-17T23:02:01.353Z,77.53
2023-04-17T23:04:29.337Z,77.46
2023-04-17T23:06:57.265Z,77.52
2023-04-17T23:09:25.958Z,77.45
2023-04-17T23:11:53.773Z,77.54
2023-04-17T23:14:21.583Z,77.59
2023-04-17T23:16:49.422Z,77.51
2023-04-17T23:19:18.222Z,77.47
2023-04-17T23:21:46.003Z,77.60
2023-04-17T23:24:14.102Z,77.62
2023-04-17T23:26:42.296Z,77.66
2023-04-17T23:29:10.146Z,78.16
2023-04-17T23:31:38.308Z,78.13
2023-04-17T23:34:06.253Z,78.12
2023-04-17T23:36:34.086Z,77.96
2023-04-17T23:39:01.913Z,77.79
2023-04-17T23:41:29.829Z,77.71
2023-04-17T23:43:57.662Z,77.73
2023-04-17T23:46:25.923Z,77.75
2023-04-17T23:48:53.792Z,77.46
2023-04-17T23:51:21.603Z,77.20
2023-04-17T23:53:49.378Z,77.10
2023-04-17T23:56:18.176Z,77.07
2023-04-17T23:58:46.074Z,77.04
